Time;durP1;ratioP1;P1;durP2;ratioP2;P2;SDS_P1;SDS_P2;PMS_P1;PMS_P2;Temp;Humidity;BMP_temperature;BMP_pressure;BME280_temperature;BME280_humidity;BME280_pressure;Samples;Min_cycle;Max_cycle;Signal;HPM_P1;HPM_P2
2021/12/24 00:01:05;;;;;;;23.15;9.50;;;;;;;-11.07;86.01;99342.72;1680808;84;20923;-72
2021/12/24 00:03:33;;;;;;;18.10;7.53;;;;;;;-11.05;85.94;99343.36;1680781;84;21174;-71
2021/12/24 00:06:01;;;;;;;22.95;10.23;;;;;;;-11.04;85.81;99335.73;1665501;83;21003;-73
2021/12/24 00:08:28;;;;;;;18.87;9.05;;;;;;;-11.05;85.77;99329.60;1703890;83;21010;-73
2021/12/24 00:11:00;;;;;;;23.40;7.62;;;;;;;-11.05;85.79;99328.78;1694732;82;20880;-73
2021/12/24 00:13:29;;;;;;;23.73;9.40;;;;;;;-11.04;85.85;99329.09;1705352;83;20888;-73
2021/12/24 00:16:10;;;;;;;21.55;8.75;;;;;;;-11.05;85.80;99320.32;1651436;85;21162;-72
2021/12/24 00:18:40;;;;;;;25.05;9.55;;;;;;;-11.06;85.78;99313.38;1649838;86;21029;-73
2021/12/24 00:37:05;;;;;;;25.72;10.10;;;;;;;-11.02;85.77;99271.42;1660463;85;21448;-75
2021/12/24 00:39:35;;;;;;;22.50;9.75;;;;;;;-11.04;85.75;99274.75;1665190;86;21015;-74
2021/12/24 00:42:00;;;;;;;23.32;8.28;;;;;;;-11.04;85.81;99265.48;1667701;85;22185;-75
2021/12/24 00:44:26;;;;;;;19.02;8.80;;;;;;;-11.04;85.74;99264.15;1665677;85;21090;-75
2021/12/24 00:46:53;;;;;;;23.70;8.93;;;;;;;-11.04;85.83;99259.67;1663706;85;21059;-74
2021/12/24 00:49:19;;;;;;;23.12;10.13;;;;;;;-11.02;85.89;99247.05;1661014;85;21045;-74
2021/12/24 00:57:17;;;;;;;25.20;9.65;;;;;;;-11.05;85.77;99226.72;1662340;86;20928;-73
2021/12/24 00:59:43;;;;;;;22.05;9.35;;;;;;;-11.04;85.80;99220.41;1662180;86;20884;-72
2021/12/24 01:02:10;;;;;;;30.70;10.63;;;;;;;-11.07;85.70;99217.63;1662238;86;20963;-73
2021/12/24 01:04:38;;;;;;;31.87;11.38;;;;;;;-11.09;85.76;99218.31;1662188;86;21000;-75
2021/12/24 01:07:05;;;;;;;28.62;10.20;;;;;;;-11.06;85.83;99209.17;1662237;86;22121;-76
2021/12/24 01:09:33;;;;;;;28.10;10.90;;;;;;;-11.08;85.71;99204.05;1662244;86;20861;-76
2021/12/24 01:11:59;;;;;;;26.23;11.28;;;;;;;-11.10;85.62;99197.30;1662199;86;20987;-76
2021/12/24 01:14:26;;;;;;;27.00;12.40;;;;;;;-11.13;85.81;99185.23;1662105;86;21015;-75
2021/12/24 01:17:05;;;;;;;30.72;11.33;;;;;;;-11.14;85.79;99178.79;1662255;86;20979;-75
2021/12/24 01:19:24;;;;;;;24.90;10.80;;;;;;;-11.15;85.85;99175.31;1661961;85;21191;-75
2021/12/24 01:25:29;;;;;;;27.35;11.33;;;;;;;-11.19;86.07;99159.47;1656600;85;21040;-76
2021/12/24 01:29:56;;;;;;;35.40;12.55;;;;;;;-11.13;86.39;99138.03;1688075;83;20989;-73
2021/12/24 01:40:27;;;;;;;29.30;11.30;;;;;;;-11.15;86.11;99111.71;1683541;84;21396;-73
2021/12/24 01:42:53;;;;;;;27.77;12.10;;;;;;;-11.15;86.31;99102.44;1709530;83;21035;-73
2021/12/24 01:45:25;;;;;;;22.82;8.90;;;;;;;-11.17;86.32;99099.15;1685382;82;22141;-74
2021/12/24 01:47:57;;;;;;;30.35;11.38;;;;;;;-11.16;86.50;99092.84;1670164;84;21434;-74
2021/12/24 01:50:25;;;;;;;25.65;9.10;;;;;;;-11.15;86.66;99082.55;1688740;84;21092;-74
2021/12/24 01:52:55;;;;;;;29.02;10.05;;;;;;;-11.13;86.72;99079.72;1616803;87;20930;-74
2021/12/24 01:55:23;;;;;;;29.57;10.53;;;;;;;-11.15;86.66;99071.13;1682223;84;20990;-73
2021/12/24 01:57:50;;;;;;;30.72;11.95;;;;;;;-11.17;86.71;99070.50;1641851;86;21572;-76
2021/12/24 02:00:21;;;;;;;27.37;9.43;;;;;;;-11.17;86.77;99067.85;1682718;84;20857;-75
2021/12/24 02:02:48;;;;;;;23.67;10.20;;;;;;;-11.18;86.90;99053.78;1644769;84;21619;-75
2021/12/24 02:05:15;;;;;;;22.50;9.45;;;;;;;-11.17;86.82;99049.30;1682592;85;21434;-74
2021/12/24 02:07:41;;;;;;;31.57;11.20;;;;;;;-11.18;86.86;99047.16;1683132;84;20911;-74
2021/12/24 02:10:11;;;;;;;28.23;11.08;;;;;;;-11.19;86.84;99040.72;1685016;84;21566;-73
2021/12/24 02:12:38;;;;;;;31.25;13.25;;;;;;;-11.20;86.87;99032.45;1648632;85;20996;-76
2021/12/24 02:15:11;;;;;;;27.02;11.12;;;;;;;-11.23;86.91;99031.00;1685770;83;21418;-75
2021/12/24 02:18:00;;;;;;;20.80;9.98;;;;;;;-11.23;86.99;99024.38;1683256;84;21700;-75
2021/12/24 02:28:37;;;;;;;32.70;11.15;;;;;;;-11.34;87.15;98993.08;1665023;86;20963;-74
2021/12/24 02:30:58;;;;;;;33.92;12.98;;;;;;;-11.36;87.21;98990.61;1650190;86;20973;-73
2021/12/24 02:33:25;;;;;;;31.33;11.40;;;;;;;-11.37;87.40;98985.50;1658924;85;21020;-73
2021/12/24 02:35:51;;;;;;;26.97;11.40;;;;;;;-11.38;87.34;98985.19;1650145;86;21502;-74
2021/12/24 02:38:18;;;;;;;32.35;11.08;;;;;;;-11.40;87.35;98978.75;1649551;86;20912;-74
2021/12/24 02:40:45;;;;;;;31.05;11.88;;;;;;;-11.40;87.34;98979.26;1640750;84;21128;-74
2021/12/24 02:43:15;;;;;;;29.55;10.78;;;;;;;-11.40;87.34;98977.43;1640589;85;20922;-73
2021/12/24 02:45:43;;;;;;;30.52;11.85;;;;;;;-11.40;87.35;98980.08;1652644;86;21025;-73
2021/12/24 02:54:01;;;;;;;24.02;11.88;;;;;;;-11.45;87.52;98968.41;1683944;84;21088;-73
2021/12/24 02:56:34;;;;;;;31.45;12.03;;;;;;;-11.46;87.55;98965.44;1683508;84;20946;-74
2021/12/24 02:59:04;;;;;;;25.65;11.35;;;;;;;-11.47;87.61;98958.00;1636348;85;21575;-74
2021/12/24 03:01:35;;;;;;;30.27;10.65;;;;;;;-11.46;87.62;98949.05;1676551;84;21149;-75
2021/12/24 03:04:02;;;;;;;25.08;10.32;;;;;;;-11.44;87.60;98939.08;1652155;86;20961;-77
2021/12/24 03:06:32;;;;;;;33.25;13.65;;;;;;;-11.44;87.55;98932.96;1679747;84;20902;-76
2021/12/24 03:08:59;;;;;;;25.70;10.95;;;;;;;-11.46;87.57;98924.38;1685555;84;21053;-75
2021/12/24 03:11:26;;;;;;;29.05;10.48;;;;;;;-11.47;87.95;98918.27;1682987;83;20946;-75
2021/12/24 03:13:55;;;;;;;24.80;10.35;;;;;;;-11.47;87.83;98915.62;1682233;83;21111;-75
2021/12/24 03:16:22;;;;;;;20.70;8.63;;;;;;;-11.48;87.76;98912.66;1648183;86;20949;-75
2021/12/24 03:18:51;;;;;;;31.48;12.10;;;;;;;-11.48;87.94;98912.66;1658690;86;21056;-74
2021/12/24 03:21:27;;;;;;;24.82;10.30;;;;;;;-11.48;88.00;98906.03;1658189;86;20990;-74
2021/12/24 03:26:42;;;;;;;28.20;10.18;;;;;;;-11.46;88.24;98893.42;1658538;86;21516;-75
2021/12/24 03:29:10;;;;;;;23.92;9.38;;;;;;;-11.45;88.17;98888.44;1658199;86;21623;-76
2021/12/24 03:31:37;;;;;;;26.52;9.03;;;;;;;-11.43;88.18;98885.09;1685147;84;20900;-76
2021/12/24 03:34:06;;;;;;;28.57;10.32;;;;;;;-11.42;88.29;98878.78;1639872;86;21014;-74
2021/12/24 03:36:33;;;;;;;22.77;9.23;;;;;;;-11.39;88.34;98874.93;1661635;86;21041;-74
2021/12/24 03:38:59;;;;;;;27.48;10.03;;;;;;;-11.35;88.34;98873.54;1686963;84;21484;-74
2021/12/24 03:41:26;;;;;;;26.48;11.08;;;;;;;-11.31;88.23;98862.88;1683665;84;21461;-76
2021/12/24 03:43:53;;;;;;;26.75;9.55;;;;;;;-11.28;88.37;98860.34;1689324;83;21055;-73
2021/12/24 03:46:28;;;;;;;28.05;10.38;;;;;;;-11.24;88.27;98857.63;1677736;84;21058;-73
2021/12/24 03:48:59;;;;;;;26.27;10.15;;;;;;;-11.19;88.37;98852.56;1683707;84;20958;-76
2021/12/24 03:51:35;;;;;;;24.57;10.28;;;;;;;-11.16;88.24;98842.39;1682692;83;21851;-76
2021/12/24 03:56:39;;;;;;;20.95;8.05;;;;;;;-11.11;87.92;98827.23;1666387;85;21187;-76
2021/12/24 03:59:09;;;;;;;23.57;8.98;;;;;;;-11.08;87.79;98826.34;1661581;85;21524;-76
2021/12/24 04:01:53;;;;;;;26.95;10.43;;;;;;;-11.08;87.74;98809.11;1634573;86;20907;-76
2021/12/24 04:04:35;;;;;;;25.60;10.88;;;;;;;-11.05;87.78;98809.23;1618394;85;21080;-76
2021/12/24 04:07:20;;;;;;;19.55;7.35;;;;;;;-10.98;88.01;98796.83;1659508;85;21546;-76
2021/12/24 04:10:15;;;;;;;22.15;9.13;;;;;;;-10.95;87.69;98790.29;1659818;85;20975;-75
2021/12/24 04:12:53;;;;;;;24.95;8.90;;;;;;;-10.93;87.45;98785.11;1694079;83;21089;-74
2021/12/24 04:15:20;;;;;;;28.52;12.10;;;;;;;-10.91;87.51;98783.58;1704439;81;21023;-75
2021/12/24 04:17:47;;;;;;;24.87;10.10;;;;;;;-10.91;87.28;98784.40;1698511;83;21750;-76
2021/12/24 04:25:27;;;;;;;25.50;9.73;;;;;;;-10.81;87.77;98803.42;1669974;85;21098;-74
2021/12/24 04:27:57;;;;;;;25.10;10.35;;;;;;;-10.78;87.14;98799.05;1702595;82;20990;-74
2021/12/24 04:30:28;;;;;;;25.27;11.00;;;;;;;-10.78;87.08;98777.83;1706571;81;21173;-76
2021/12/24 04:33:04;;;;;;;22.67;10.05;;;;;;;-10.75;87.51;98777.44;1721895;81;21069;-75
2021/12/24 04:51:25;;;;;;;24.60;9.13;;;;;;;-10.62;87.73;98726.28;1650383;86;20960;-72
2021/12/24 05:02:37;;;;;;;24.63;10.13;;;;;;;-10.46;87.52;98725.09;1690007;83;21017;-75
2021/12/24 05:04:50;;;;;;;18.27;7.87;;;;;;;-10.45;87.40;98719.59;1688744;83;20966;-75
2021/12/24 05:07:54;;;;;;;23.20;9.28;;;;;;;-10.42;87.48;98712.55;1670821;85;21094;-76
2021/12/24 05:09:56;;;;;;;20.50;8.03;;;;;;;-10.40;87.45;98718.98;1695387;83;21265;-77
2021/12/24 05:12:23;;;;;;;24.67;9.65;;;;;;;-10.37;87.46;98712.73;1682584;83;21010;-72
2021/12/24 05:14:49;;;;;;;24.20;9.90;;;;;;;-10.34;87.57;98706.20;1683250;83;20982;-74
2021/12/24 05:17:26;;;;;;;22.77;9.80;;;;;;;-10.30;87.43;98706.11;1701446;82;20968;-74
2021/12/24 05:22:53;;;;;;;23.00;9.30;;;;;;;-10.26;87.32;98684.78;1712531;83;21202;-73
2021/12/24 05:25:19;;;;;;;29.02;10.20;;;;;;;-10.25;87.33;98678.45;1692848;83;21065;-72
2021/12/24 05:27:46;;;;;;;25.15;10.75;;;;;;;-10.25;87.28;98673.15;1692619;81;20939;-77
2021/12/24 05:30:13;;;;;;;21.60;7.65;;;;;;;-10.23;87.50;98670.29;1702948;83;21034;-72
2021/12/24 05:32:41;;;;;;;24.23;10.48;;;;;;;-10.22;87.36;98678.05;1717149;83;20958;-75
2021/12/24 05:35:08;;;;;;;29.95;10.32;;;;;;;-10.19;87.53;98679.48;1656458;85;21476;-73
2021/12/24 05:37:37;;;;;;;21.07;7.87;;;;;;;-10.18;88.22;98683.23;1663227;85;20967;-72
2021/12/24 05:40:05;;;;;;;26.40;11.28;;;;;;;-10.14;87.87;98682.31;1664789;85;21067;-77
2021/12/24 05:42:33;;;;;;;18.20;8.08;;;;;;;-10.12;87.67;98673.63;1643758;86;21003;-77
2021/12/24 05:45:04;;;;;;;26.23;10.53;;;;;;;-10.11;87.93;98673.94;1649150;86;20932;-76
2021/12/24 05:47:34;;;;;;;29.55;11.15;;;;;;;-10.08;87.73;98674.86;1680960;84;21983;-82
2021/12/24 05:50:05;;;;;;;32.20;11.15;;;;;;;-10.06;87.84;98672.81;1712895;83;20970;-76
2021/12/24 05:52:40;;;;;;;29.48;11.22;;;;;;;-10.04;87.92;98672.92;1662531;83;21142;-81
2021/12/24 05:55:11;;;;;;;28.05;10.68;;;;;;;-10.00;87.97;98666.69;1660581;85;21067;-73
2021/12/24 05:57:39;;;;;;;30.23;11.93;;;;;;;-10.00;88.05;98658.21;1662734;85;21075;-73
2021/12/24 06:00:08;;;;;;;30.20;11.60;;;;;;;-9.97;88.11;98658.31;1631166;86;21468;-72
2021/12/24 06:02:40;;;;;;;27.07;11.55;;;;;;;-9.94;88.29;98659.73;1678506;84;20924;-71
2021/12/24 06:05:07;;;;;;;29.55;11.60;;;;;;;-9.90;88.33;98657.80;1683723;84;21015;-77
2021/12/24 06:07:34;;;;;;;23.27;10.00;;;;;;;-9.86;88.42;98649.72;1687452;83;20950;-73
2021/12/24 06:10:01;;;;;;;21.37;8.50;;;;;;;-9.82;88.49;98646.92;1637363;86;21734;-73
2021/12/24 06:12:28;;;;;;;27.30;10.18;;;;;;;-9.77;88.68;98640.48;1656495;86;21993;-71
2021/12/24 06:15:01;;;;;;;27.98;10.45;;;;;;;-9.72;88.67;98639.35;1662348;85;21558;-72
2021/12/24 06:17:23;;;;;;;28.17;10.90;;;;;;;-9.66;88.78;98641.69;1662498;86;20916;-75
2021/12/24 06:19:50;;;;;;;32.05;11.75;;;;;;;-9.59;88.97;98637.69;1659252;86;21308;-71
2021/12/24 06:22:17;;;;;;;26.15;10.90;;;;;;;-9.53;89.11;98628.37;1647709;86;21044;-75
2021/12/24 06:24:43;;;;;;;31.45;10.63;;;;;;;-9.44;89.44;98626.30;1661503;86;21155;-74
2021/12/24 06:27:10;;;;;;;30.72;12.20;;;;;;;-9.39;89.29;98620.66;1661942;86;20963;-72
2021/12/24 06:29:36;;;;;;;23.62;10.00;;;;;;;-9.34;89.37;98612.88;1661922;86;21223;-74
2021/12/24 06:32:05;;;;;;;17.73;7.60;;;;;;;-9.27;89.61;98602.73;1655706;86;21015;-71
2021/12/24 06:34:31;;;;;;;23.00;10.05;;;;;;;-9.20;89.62;98603.48;1646839;86;21084;-70
2021/12/24 06:37:03;;;;;;;23.42;10.48;;;;;;;-9.16;89.71;98594.05;1646989;86;21994;-73
2021/12/24 06:39:32;;;;;;;28.85;10.95;;;;;;;-9.12;89.84;98588.11;1635157;87;21092;-72
2021/12/24 06:42:08;;;;;;;28.85;11.33;;;;;;;-9.06;89.76;98578.46;1617474;86;21028;-73
2021/12/24 06:44:38;;;;;;;26.55;10.70;;;;;;;-8.98;89.94;98572.89;1671847;83;21172;-71
2021/12/24 06:47:11;;;;;;;31.12;11.63;;;;;;;-8.93;89.76;98561.61;1667971;84;20947;-72
2021/12/24 06:49:42;;;;;;;33.40;12.25;;;;;;;-8.91;89.78;98559.04;1682102;84;21942;-73
2021/12/24 06:52:15;;;;;;;26.27;10.50;;;;;;;-8.90;90.02;98558.01;1675088;84;20902;-75
2021/12/24 06:54:46;;;;;;;36.53;13.85;;;;;;;-8.89;90.02;98554.32;1692531;83;20963;-73
2021/12/24 06:57:23;;;;;;;27.55;11.93;;;;;;;-8.85;90.17;98560.02;1702304;83;20919;-71
2021/12/24 06:59:52;;;;;;;30.88;12.43;;;;;;;-8.82;90.25;98551.61;1695829;83;21011;-74
2021/12/24 07:02:29;;;;;;;26.48;11.53;;;;;;;-8.79;90.36;98549.86;1720877;83;21940;-74
2021/12/24 07:04:57;;;;;;;19.05;9.20;;;;;;;-8.77;90.22;98543.80;1684465;83;21018;-76
2021/12/24 07:07:24;;;;;;;33.08;15.55;;;;;;;-8.74;90.79;98537.53;1670956;83;20999;-75
2021/12/24 07:09:57;;;;;;;32.10;13.10;;;;;;;-8.72;90.52;98538.14;1660286;83;20919;-72
2021/12/24 07:12:31;;;;;;;30.97;11.68;;;;;;;-8.72;90.68;98530.16;1674178;82;21037;-75
2021/12/24 07:15:02;;;;;;;30.65;12.03;;;;;;;-8.69;90.90;98521.74;1699325;83;40136;-75
2021/12/24 07:17:34;;;;;;;30.05;12.33;;;;;;;-8.69;91.09;98512.43;1691741;83;20898;-71
2021/12/24 07:20:03;;;;;;;31.68;14.13;;;;;;;-8.68;91.19;98510.58;1660188;85;21059;-72
2021/12/24 07:22:36;;;;;;;30.08;13.08;;;;;;;-8.63;91.84;98511.23;1687386;83;20911;-72
2021/12/24 07:25:12;;;;;;;35.75;18.57;;;;;;;-8.57;91.72;98500.53;1662290;83;21053;-72
2021/12/24 07:27:43;;;;;;;27.55;11.70;;;;;;;-8.53;91.52;98484.94;1715615;83;22426;-71
2021/12/24 07:30:12;;;;;;;25.82;10.65;;;;;;;-8.52;91.70;98495.89;1662186;85;21043;-70
2021/12/24 07:32:42;;;;;;;29.05;12.60;;;;;;;-8.50;91.69;98493.30;1661907;85;21015;-71
2021/12/24 07:35:19;;;;;;;29.63;14.98;;;;;;;-8.49;91.82;98482.14;1687970;83;21506;-71
2021/12/24 07:37:49;;;;;;;32.03;15.13;;;;;;;-8.45;91.98;98470.02;1643108;84;20945;-75
2021/12/24 07:40:20;;;;;;;28.77;12.35;;;;;;;-8.39;92.21;98463.83;1653040;84;21051;-73
2021/12/24 07:42:56;;;;;;;34.20;14.68;;;;;;;-8.32;92.39;98458.44;1685808;83;21006;-71
2021/12/24 07:45:31;;;;;;;30.72;14.15;;;;;;;-8.26;92.38;98457.52;1697762;82;21542;-72
2021/12/24 07:48:43;;;;;;;27.65;13.00;;;;;;;-8.22;92.37;98453.37;1713181;83;20860;-70
2021/12/24 07:53:10;;;;;;;32.90;15.53;;;;;;;-8.15;92.46;98444.80;1687285;83;21091;-73
2021/12/24 07:55:44;;;;;;;34.43;16.00;;;;;;;-8.14;92.55;98441.91;1695082;82;21046;-72
2021/12/24 07:58:17;;;;;;;21.93;11.28;;;;;;;-8.11;92.71;98448.13;1652430;84;20919;-71
2021/12/24 08:00:45;;;;;;;28.32;14.00;;;;;;;-8.07;92.73;98433.82;1683643;83;20939;-75
2021/12/24 08:03:15;;;;;;;30.62;13.03;;;;;;;-8.03;92.79;98435.81;1613560;87;21532;-73
2021/12/24 08:05:48;;;;;;;29.00;11.65;;;;;;;-7.95;92.88;98427.23;1661580;84;20938;-73
2021/12/24 08:08:22;;;;;;;27.48;12.58;;;;;;;-7.88;92.85;98432.77;1674271;84;21553;-75
2021/12/24 08:10:51;;;;;;;25.02;11.65;;;;;;;-7.84;92.76;98429.14;1661351;84;21153;-72
2021/12/24 08:13:30;;;;;;;24.43;11.68;;;;;;;-7.81;92.50;98422.84;1635036;86;20992;-73
2021/12/24 08:16:05;;;;;;;24.70;12.63;;;;;;;-7.80;92.50;98411.67;1629430;86;21095;-69
2021/12/24 08:18:37;;;;;;;32.13;13.93;;;;;;;-7.77;92.82;98424.54;1707184;81;21157;-73
2021/12/24 08:21:05;;;;;;;;;;;;;;;-7.74;92.95;98414.77;1676980;81;21188;-72
2021/12/24 08:23:35;;;;;;;31.60;13.25;;;;;;;-7.71;93.08;98407.66;1670819;84;20131;-72
2021/12/24 08:26:14;;;;;;;31.73;14.25;;;;;;;-7.64;93.65;98396.38;1654320;86;21019;-71
2021/12/24 08:28:39;;;;;;;26.05;12.78;;;;;;;-7.60;93.12;98386.89;1658304;85;21065;-71
2021/12/24 08:31:11;;;;;;;26.10;10.18;;;;;;;-7.61;93.28;98381.79;1689783;81;21825;-72
2021/12/24 08:33:42;;;;;;;34.25;14.07;;;;;;;-7.61;93.57;98383.13;1694975;83;20877;-72
2021/12/24 08:36:17;;;;;;;34.92;19.23;;;;;;;-7.61;93.80;98377.27;1670766;84;21087;-72
2021/12/24 08:38:47;;;;;;;32.85;15.90;;;;;;;-7.60;93.61;98370.91;1678531;83;21506;-71
2021/12/24 08:41:18;;;;;;;42.05;22.95;;;;;;;-7.58;93.82;98354.16;1671169;83;21011;-73
2021/12/24 08:43:49;;;;;;;39.98;18.05;;;;;;;-7.50;93.97;98352.99;1675165;85;21066;-72
2021/12/24 08:46:22;;;;;;;31.60;16.17;;;;;;;-7.44;94.12;98351.56;1639769;84;20920;-73
2021/12/24 08:48:51;;;;;;;49.03;21.55;;;;;;;-7.39;94.00;98341.54;1668923;84;20915;-71
2021/12/24 08:51:33;;;;;;;44.42;21.33;;;;;;;-7.41;93.62;98329.77;1673827;83;20951;-72
2021/12/24 08:54:05;;;;;;;43.65;17.60;;;;;;;-7.38;93.97;98327.17;1654417;85;21742;-73
2021/12/24 08:56:36;;;;;;;27.07;12.30;;;;;;;-7.34;94.15;98318.48;1651322;85;20927;-73
2021/12/24 08:59:08;;;;;;;26.07;11.18;;;;;;;-7.30;93.62;98309.50;1656783;84;21566;-72
2021/12/24 09:01:38;;;;;;;28.77;12.82;;;;;;;-7.32;93.02;98305.73;1656884;83;21023;-73
2021/12/24 09:04:08;;;;;;;22.82;11.15;;;;;;;-7.30;93.06;98298.02;1632917;85;20998;-74
2021/12/24 09:06:44;;;;;;;22.37;9.98;;;;;;;-7.25;93.28;98276.81;1633920;86;20967;-72
2021/12/24 09:09:12;;;;;;;24.40;10.88;;;;;;;-7.25;92.54;98280.29;1650355;86;21002;-73
2021/12/24 09:11:46;;;;;;;27.90;12.23;;;;;;;-7.23;93.48;98270.72;1631098;86;21138;-73
2021/12/24 09:14:18;;;;;;;17.82;7.65;;;;;;;-7.15;93.21;98270.37;1629947;86;20908;-73
2021/12/24 09:16:54;;;;;;;18.25;9.28;;;;;;;-7.11;92.50;98256.86;1647249;86;20923;-71
2021/12/24 09:19:28;;;;;;;29.72;14.07;;;;;;;-7.09;92.23;98261.44;1629174;86;21163;-70
2021/12/24 09:22:00;;;;;;;24.77;12.20;;;;;;;-7.10;92.22;98255.30;1646349;85;21858;-71
2021/12/24 09:24:32;;;;;;;29.40;12.93;;;;;;;-7.09;92.12;98250.25;1686049;84;20979;-70
2021/12/24 09:27:05;;;;;;;31.27;13.78;;;;;;;-7.12;91.80;98247.23;1674824;84;22503;-72
2021/12/24 09:29:37;;;;;;;30.75;12.40;;;;;;;-7.14;92.08;98244.80;1644144;85;21111;-73
2021/12/24 09:32:06;;;;;;;25.35;11.97;;;;;;;-7.10;92.40;98229.14;1688251;82;21043;-70
2021/12/24 09:34:34;;;;;;;24.45;10.88;;;;;;;-7.04;92.34;98216.20;1697625;83;26190;-72
2021/12/24 09:37:07;;;;;;;30.45;12.28;;;;;;;-6.98;92.26;98217.13;1688724;83;20985;-72
2021/12/24 09:39:38;;;;;;;26.65;11.45;;;;;;;-6.91;92.30;98212.44;1691536;83;21044;-71
2021/12/24 09:42:14;;;;;;;24.27;11.60;;;;;;;-6.78;92.40;98211.66;1673222;83;20943;-71
2021/12/24 09:44:42;;;;;;;22.02;11.08;;;;;;;-6.63;91.71;98204.47;1660569;85;21012;-70
2021/12/24 09:47:10;;;;;;;29.40;11.43;;;;;;;-6.54;91.27;98202.23;1669284;85;21525;-71
2021/12/24 09:49:48;;;;;;;27.15;12.07;;;;;;;-6.52;90.71;98196.13;1637779;86;20960;-72
2021/12/24 09:52:21;;;;;;;29.50;13.32;;;;;;;-6.47;91.24;98184.22;1671524;85;21692;-71
2021/12/24 09:54:52;;;;;;;26.80;12.28;;;;;;;-6.42;90.84;98180.30;1675976;85;21007;-70
2021/12/24 09:57:19;;;;;;;32.05;14.33;;;;;;;-6.32;92.07;98173.25;1630786;87;20954;-71
2021/12/24 09:59:52;;;;;;;32.23;13.13;;;;;;;-6.18;90.72;98164.94;1659237;85;21778;-71
2021/12/24 10:02:28;;;;;;;40.58;16.00;;;;;;;-6.05;90.02;98154.75;1662269;85;20967;-72
2021/12/24 10:05:00;;;;;;;34.13;14.30;;;;;;;-5.95;89.30;98146.62;1623414;86;20977;-71
2021/12/24 10:07:29;;;;;;;29.92;12.85;;;;;;;-5.85;89.60;98142.73;1622003;86;21092;-72
2021/12/24 10:10:05;;;;;;;28.65;12.25;;;;;;;-5.73;89.11;98149.58;1642804;84;21125;-72
2021/12/24 10:12:39;;;;;;;30.37;13.25;;;;;;;-5.74;88.24;98146.63;1693897;83;20916;-72
2021/12/24 10:15:11;;;;;;;;;;;;;;;-5.79;89.11;98137.22;1687126;83;21562;-71
2021/12/24 10:17:41;;;;;;;33.00;13.62;;;;;;;-5.82;89.18;98130.22;1694659;83;20128;-70
2021/12/24 10:20:15;;;;;;;22.62;10.23;;;;;;;-5.82;90.46;98104.83;1704314;81;20999;-72
2021/12/24 10:22:53;;;;;;;26.33;11.73;;;;;;;-5.85;89.55;98110.66;1674448;84;21043;-71
2021/12/24 10:25:31;;;;;;;31.40;12.82;;;;;;;-5.87;89.73;98106.91;1643393;85;21165;-71
2021/12/24 10:28:12;;;;;;;24.55;9.55;;;;;;;-5.86;89.98;98091.14;1671303;83;21597;-72
2021/12/24 10:30:42;;;;;;;28.80;12.85;;;;;;;-5.82;89.82;98088.80;1687114;83;21029;-76
2021/12/24 10:33:14;;;;;;;30.77;11.78;;;;;;;-5.78;89.75;98081.37;1643000;85;21084;-74
2021/12/24 10:35:45;;;;;;;29.63;13.32;;;;;;;-5.74;89.31;98069.11;1679737;83;21473;-71
2021/12/24 10:38:19;;;;;;;24.20;10.58;;;;;;;-5.68;89.63;98064.64;1683694;84;20847;-78
2021/12/24 10:41:01;;;;;;;;;;;;;;;-5.60;88.87;98069.56;1692140;84;21458;-80
2021/12/24 10:43:34;;;;;;;25.52;11.43;;;;;;;-5.54;88.77;98058.41;1702555;82;20237;-76
2021/12/24 10:46:14;;;;;;;23.50;11.48;;;;;;;-5.52;88.50;98045.06;1707183;82;21050;-78
2021/12/24 10:49:16;;;;;;;24.50;10.88;;;;;;;-5.48;88.67;98033.34;1666862;84;21019;-75
2021/12/24 10:52:12;;;;;;;24.10;11.68;;;;;;;-5.44;88.46;98039.28;1656170;84;21489;-74
2021/12/24 10:54:36;;;;;;;27.75;11.65;;;;;;;-5.39;88.60;98029.98;1693099;83;20954;-72
2021/12/24 10:57:23;;;;;;;24.75;11.55;;;;;;;-5.36;88.28;98031.35;1650961;85;20975;-74
2021/12/24 10:59:58;;;;;;;21.68;11.22;;;;;;;-5.39;87.87;98017.95;1693851;82;20994;-73
2021/12/24 11:02:34;;;;;;;30.55;12.37;;;;;;;-5.36;88.06;98012.63;1631013;85;21070;-67
2021/12/24 11:05:04;;;;;;;22.73;11.53;;;;;;;-5.35;87.56;98020.94;1648399;85;21204;-67
2021/12/24 11:07:42;;;;;;;24.67;12.13;;;;;;;-5.32;87.90;98014.55;1660164;85;21572;-74
2021/12/24 11:10:22;;;;;;;20.97;9.95;;;;;;;-5.23;88.23;98018.13;1662479;83;21053;-78
2021/12/24 11:12:57;;;;;;;35.00;10.88;;;;;;;-5.18;87.13;98007.45;1683029;83;21589;-73
2021/12/24 11:15:34;;;;;;;22.90;11.60;;;;;;;-5.22;86.66;98003.69;1654606;84;20969;-74
2021/12/24 11:18:16;;;;;;;24.82;12.55;;;;;;;-5.26;87.16;97999.90;1646569;85;21191;-72
2021/12/24 11:20:51;;;;;;;25.97;13.15;;;;;;;-5.27;87.53;98002.30;1657911;84;21097;-71
2021/12/24 11:23:22;;;;;;;23.35;11.38;;;;;;;-5.26;87.43;97995.89;1640616;86;21534;-75
2021/12/24 11:26:00;;;;;;;24.40;11.00;;;;;;;-5.25;87.58;97992.16;1650625;84;21029;-73
2021/12/24 11:28:29;;;;;;;30.02;12.35;;;;;;;-5.32;87.26;97985.12;1680341;84;21092;-76
2021/12/24 11:31:04;;;;;;;22.45;10.75;;;;;;;-5.36;87.73;97985.88;1627969;84;21683;-75
2021/12/24 11:33:34;;;;;;;23.52;10.70;;;;;;;-5.34;88.05;97987.25;1673860;84;21121;-74
2021/12/24 11:36:06;;;;;;;23.30;11.78;;;;;;;-5.34;87.54;97990.45;1649924;85;21092;-71
2021/12/24 11:38:40;;;;;;;24.35;11.97;;;;;;;-5.38;87.75;97986.13;1655204;83;21119;-76
2021/12/24 11:41:14;;;;;;;29.40;12.53;;;;;;;-5.39;88.11;97981.84;1661907;83;20961;-75
2021/12/24 11:43:42;;;;;;;23.92;11.55;;;;;;;-5.36;88.38;97972.52;1696297;83;21550;-77
2021/12/24 11:46:18;;;;;;;23.83;11.40;;;;;;;-5.33;88.53;97964.79;1694897;81;21008;-76
2021/12/24 11:48:48;;;;;;;25.02;9.58;;;;;;;-5.30;88.46;97960.81;1677934;83;21482;-74
2021/12/24 11:51:28;;;;;;;25.15;12.25;;;;;;;-5.35;87.97;97962.09;1691526;83;20919;-71
2021/12/24 11:54:12;;;;;;;21.70;10.40;;;;;;;-5.41;88.49;97954.55;1673676;83;21241;-70
2021/12/24 11:56:47;;;;;;;27.70;12.33;;;;;;;-5.42;88.80;97948.91;1704026;83;21170;-75
2021/12/24 11:59:36;;;;;;;29.70;13.15;;;;;;;-5.40;88.92;97948.14;1696118;83;20998;-74
2021/12/24 12:02:06;;;;;;;37.78;12.93;;;;;;;-5.37;89.22;97942.28;1684140;83;21067;-71
2021/12/24 12:04:36;;;;;;;31.00;12.40;;;;;;;-5.31;89.34;97939.12;1656326;84;21102;-70
2021/12/24 12:07:17;;;;;;;29.92;14.00;;;;;;;-5.33;89.06;97938.05;1637722;84;21082;-75
2021/12/24 12:09:47;;;;;;;29.55;13.58;;;;;;;-5.35;89.16;97941.50;1712947;81;20970;-70
2021/12/24 12:12:35;;;;;;;29.15;13.05;;;;;;;-5.37;89.23;97932.92;1698394;81;20994;-72
2021/12/24 12:15:31;;;;;;;27.20;13.45;;;;;;;-5.36;89.43;97935.06;1684994;84;21102;-75
2021/12/24 12:17:58;;;;;;;33.80;14.50;;;;;;;-5.35;89.71;97927.32;1664786;85;21165;-71
2021/12/24 12:20:56;;;;;;;35.38;16.00;;;;;;;-5.40;89.88;97921.39;1659865;85;21200;-69
2021/12/24 12:26:38;;;;;;;36.28;15.05;;;;;;;-5.43;90.22;97925.09;1660266;85;20934;-67
2021/12/24 12:29:31;;;;;;;28.50;12.55;;;;;;;-5.47;90.61;97925.32;1677227;83;21014;-70
2021/12/24 12:32:18;;;;;;;34.43;14.25;;;;;;;-5.50;91.00;97923.16;1677204;83;21078;-70
2021/12/24 12:34:51;;;;;;;31.27;14.05;;;;;;;-5.54;91.28;97915.36;1658260;85;21094;-70
2021/12/24 12:37:52;;;;;;;43.10;16.30;;;;;;;-5.56;91.67;97920.95;1615492;86;21094;-72
2021/12/24 12:40:33;;;;;;;41.25;14.75;;;;;;;-5.53;92.88;97911.63;1633609;85;20997;-69
2021/12/24 12:43:05;;;;;;;43.63;14.93;;;;;;;-5.48;92.49;97918.36;1686608;82;21022;-71
2021/12/24 12:45:38;;;;;;;32.25;13.53;;;;;;;-5.47;92.53;97915.44;1689016;82;20951;-70
2021/12/24 12:48:08;;;;;;;36.80;14.45;;;;;;;-5.48;92.54;97903.13;1697427;83;21070;-71
2021/12/24 12:50:36;;;;;;;40.17;14.23;;;;;;;-5.47;92.71;97902.59;1705935;81;21155;-70
2021/12/24 12:53:33;;;;;;;55.98;17.52;;;;;;;-5.49;93.07;97884.66;1660579;85;21145;-70
2021/12/24 12:56:23;;;;;;;39.58;15.08;;;;;;;-5.49;93.35;97885.47;1653903;85;21099;-69
2021/12/24 12:59:07;;;;;;;41.30;15.80;;;;;;;-5.50;93.68;97879.84;1683447;83;20983;-71
2021/12/24 13:01:51;;;;;;;44.83;14.40;;;;;;;-5.45;93.88;97866.52;1690665;83;21466;-71
2021/12/24 13:04:24;;;;;;;34.30;13.85;;;;;;;-5.44;94.13;97868.13;1661781;84;21017;-71
2021/12/24 13:06:54;;;;;;;35.20;14.33;;;;;;;-5.43;94.43;97856.91;1690108;83;20950;-72
2021/12/24 13:09:32;;;;;;;41.42;14.75;;;;;;;-5.45;94.80;97846.99;1687221;83;21112;-71
2021/12/24 13:12:07;;;;;;;40.40;15.13;;;;;;;-5.46;95.08;97836.83;1664553;85;21637;-71